createdAt,value
2018-09-28T03:05:20.463Z,8.93
2018-09-28T03:07:49.856Z,10.90
2018-09-28T03:10:18.796Z,14.53
2018-09-28T03:12:47.822Z,14.43
2018-09-28T03:15:16.732Z,9.73
2018-09-28T03:17:46.061Z,10.87
2018-09-28T03:20:15.018Z,10.73
2018-09-28T03:22:44.269Z,13.80
2018-09-28T03:25:13.176Z,11.60
2018-09-28T03:27:42.148Z,13.13
2018-09-28T03:30:11.141Z,9.80
2018-09-28T03:32:40.032Z,11.07
2018-09-28T03:35:08.898Z,11.97
2018-09-28T03:37:37.479Z,13.07
2018-09-28T03:40:06.237Z,9.93
2018-09-28T03:42:34.842Z,11.93
2018-09-28T03:45:03.500Z,13.27
2018-09-28T03:47:32.139Z,11.90
2018-09-28T03:50:01.258Z,11.73
2018-09-28T03:52:29.828Z,10.77
2018-09-28T03:54:58.459Z,14.90
2018-09-28T03:57:27.022Z,14.03
2018-09-28T03:59:55.561Z,13.00
2018-09-28T04:02:24.196Z,10.20
2018-09-28T04:04:52.779Z,14.10
2018-09-28T04:07:21.288Z,12.60
2018-09-28T04:09:49.907Z,14.90
2018-09-28T04:12:18.527Z,14.70
2018-09-28T04:14:47.177Z,12.97
2018-09-28T04:17:15.728Z,9.47
2018-09-28T04:19:44.310Z,9.70
2018-09-28T04:22:12.902Z,11.97
2018-09-28T04:24:41.581Z,15.40
2018-09-28T04:27:10.180Z,13.87
2018-09-28T04:29:38.764Z,12.13
2018-09-28T04:32:07.399Z,13.57
2018-09-28T04:34:36.050Z,11.33
2018-09-28T04:37:04.676Z,11.70
2018-09-28T04:39:33.341Z,10.60
2018-09-28T04:42:01.943Z,10.03
2018-09-28T04:44:30.533Z,13.30
2018-09-28T04:46:59.055Z,16.27
2018-09-28T04:49:27.655Z,13.73
2018-09-28T04:51:56.307Z,13.20
2018-09-28T04:54:24.916Z,16.83
2018-09-28T04:56:53.629Z,13.20
2018-09-28T05:16:02.008Z,11.70
2018-09-28T05:18:30.599Z,12.20
2018-09-28T05:20:59.163Z,15.50
2018-09-28T05:23:27.817Z,13.73
2018-09-28T05:25:56.387Z,11.03
2018-09-28T05:28:24.982Z,10.17
2018-09-28T05:30:53.971Z,10.30
2018-09-28T05:33:22.302Z,11.07
2018-09-28T05:35:50.876Z,12.70
2018-09-28T05:38:19.504Z,11.40
2018-09-28T05:40:48.144Z,24.73
2018-09-28T05:43:16.703Z,16.77
2018-09-28T05:45:45.277Z,14.47
2018-09-28T05:48:13.840Z,15.83
2018-09-28T05:50:42.422Z,15.53
2018-09-28T05:53:10.980Z,13.03
2018-09-28T05:55:39.545Z,11.13
2018-09-28T05:58:13.429Z,14.57
2018-09-28T06:00:47.431Z,11.83
2018-09-28T06:03:18.731Z,12.50
2018-09-28T06:05:52.621Z,15.00
2018-09-28T06:08:21.188Z,13.10
2018-09-28T06:10:49.906Z,13.53
2018-09-28T06:13:19.884Z,11.30
2018-09-28T06:15:48.779Z,15.40
2018-09-28T06:18:17.347Z,10.50
2018-09-28T06:20:46.140Z,14.30
2018-09-28T06:23:14.633Z,25.63
2018-09-28T06:25:43.183Z,14.47
2018-09-28T06:28:11.658Z,11.40
2018-09-28T06:30:40.210Z,16.50
2018-09-28T06:33:09.534Z,12.03
2018-09-28T06:35:39.609Z,15.47
2018-09-28T06:38:10.332Z,20.60
2018-09-28T06:40:40.710Z,11.07
2018-09-28T06:43:10.914Z,15.83
2018-09-28T06:45:40.403Z,13.33
2018-09-28T06:48:09.593Z,16.80
2018-09-28T06:50:38.875Z,16.90
2018-09-28T06:53:08.176Z,11.80
2018-09-28T06:55:38.031Z,12.67
2018-09-28T06:58:07.806Z,15.90
2018-09-28T07:00:37.247Z,14.80
2018-09-28T07:03:06.832Z,21.57
2018-09-28T07:05:35.678Z,18.70
2018-09-28T07:08:04.534Z,24.37
2018-09-28T07:10:33.356Z,31.33
2018-09-28T07:13:01.923Z,29.17
2018-09-28T07:15:31.366Z,34.63
2018-09-28T07:17:59.940Z,29.53
2018-09-28T07:20:28.573Z,32.60
2018-09-28T07:22:57.072Z,41.50
2018-09-28T07:25:25.790Z,34.37
2018-09-28T07:27:56.706Z,45.03
2018-09-28T07:30:25.263Z,34.20
2018-09-28T07:32:53.762Z,46.27
2018-09-28T07:35:22.382Z,36.13
2018-09-28T07:37:51.046Z,32.57
2018-09-28T07:40:19.910Z,38.20
2018-09-28T07:42:49.387Z,40.17
2018-09-28T07:45:18.126Z,34.30
2018-09-28T07:47:46.747Z,37.07
2018-09-28T07:50:15.426Z,35.43
2018-09-28T07:52:44.367Z,42.10
2018-09-28T07:55:12.844Z,42.97
2018-09-28T07:57:41.335Z,47.00
2018-09-28T08:00:09.875Z,38.90
2018-09-28T08:02:38.412Z,41.57
2018-09-28T08:05:06.981Z,43.03
2018-09-28T08:07:35.623Z,34.00
2018-09-28T08:10:04.634Z,50.80
2018-09-28T08:12:33.127Z,45.63
2018-09-28T08:15:01.685Z,43.13
2018-09-28T08:17:30.213Z,45.47
2018-09-28T08:23:03.197Z,42.17
2018-09-28T08:32:26.150Z,43.23
2018-09-28T09:06:25.022Z,42.30
2018-09-28T09:08:53.864Z,44.10
2018-09-28T09:11:28.390Z,38.80
2018-09-28T09:22:29.603Z,32.50
2018-09-28T09:24:58.138Z,28.60
2018-09-28T09:27:26.808Z,24.43
2018-09-28T09:29:55.372Z,29.93
2018-09-28T09:32:30.057Z,26.67
2018-09-28T09:34:58.579Z,26.63
2018-09-28T09:37:27.682Z,28.27
2018-09-28T09:39:56.857Z,30.07
2018-09-28T09:42:25.471Z,29.70
2018-09-28T09:44:54.193Z,31.93
2018-09-28T09:47:25.697Z,38.27
2018-09-28T09:49:54.399Z,37.80
2018-09-28T09:52:22.855Z,37.30
2018-09-28T09:54:51.484Z,36.57
2018-09-28T09:57:20.177Z,43.47
2018-09-28T09:59:48.679Z,37.60
2018-09-28T10:02:22.796Z,42.50
2018-09-28T10:04:51.846Z,43.20
2018-09-28T10:07:20.448Z,38.87
2018-09-28T10:09:49.003Z,38.90
2018-09-28T10:12:17.678Z,37.27
2018-09-28T10:14:46.758Z,35.37
2018-09-28T10:17:15.251Z,50.13
2018-09-28T10:19:44.821Z,51.93
2018-09-28T10:22:13.551Z,38.60
2018-09-28T10:24:42.062Z,32.57
2018-09-28T10:27:10.570Z,33.60
2018-09-28T10:29:39.141Z,42.23
2018-09-28T10:32:07.679Z,33.37
2018-09-28T10:34:36.380Z,36.23
2018-09-28T10:37:05.109Z,32.67
2018-09-28T10:39:37.457Z,29.37
2018-09-28T10:42:06.548Z,31.00
2018-09-28T10:44:35.836Z,37.83
2018-09-28T10:47:05.386Z,29.37
2018-09-28T10:49:34.461Z,33.60
2018-09-28T10:52:03.479Z,25.10
2018-09-28T10:54:32.267Z,32.83
2018-09-28T10:57:00.900Z,30.33
2018-09-28T10:59:29.805Z,27.10
2018-09-28T11:02:00.610Z,26.20
2018-09-28T11:04:29.528Z,29.47
2018-09-28T11:06:58.138Z,24.20
2018-09-28T11:09:26.752Z,24.57
2018-09-28T11:11:55.403Z,21.87
2018-09-28T11:14:24.825Z,25.77
2018-09-28T11:16:53.422Z,22.87
2018-09-28T11:19:22.207Z,28.50
2018-09-28T11:21:50.863Z,25.93
2018-09-28T11:24:19.414Z,27.97
2018-09-28T11:26:48.222Z,17.30
2018-09-28T11:29:16.677Z,21.13
2018-09-28T11:31:49.937Z,16.70
2018-09-28T11:34:18.654Z,19.77
2018-09-28T11:36:47.098Z,19.43
2018-09-28T11:39:15.549Z,15.43
2018-09-28T11:41:44.182Z,20.93
2018-09-28T11:44:12.673Z,17.10
2018-09-28T11:46:41.180Z,15.47
2018-09-28T11:49:09.711Z,18.30
2018-09-28T11:51:38.374Z,18.07
2018-09-28T11:54:07.000Z,14.63
2018-09-28T11:56:35.455Z,18.50
2018-09-28T11:59:03.930Z,15.67
2018-09-28T12:01:32.389Z,14.27
2018-09-28T12:04:00.882Z,15.23
2018-09-28T12:06:29.413Z,21.10
2018-09-28T12:08:58.026Z,15.53
2018-09-28T12:11:26.522Z,11.13
2018-09-28T12:13:54.979Z,10.53
2018-09-28T12:16:23.447Z,9.23
2018-09-28T12:18:51.977Z,18.40
2018-09-28T12:21:21.121Z,10.23
2018-09-28T12:23:50.343Z,19.27
2018-09-28T12:26:18.818Z,17.00
2018-09-28T12:28:47.356Z,7.40
2018-09-28T12:31:15.934Z,11.97
2018-09-28T12:33:44.429Z,11.13
2018-09-28T12:36:13.121Z,10.37
2018-09-28T12:38:41.717Z,11.03
2018-09-28T12:41:10.159Z,16.93
2018-09-28T12:43:38.638Z,9.00
2018-09-28T12:46:07.112Z,18.67
2018-09-28T12:48:35.693Z,8.93
2018-09-28T12:51:04.383Z,14.57
2018-09-28T12:53:33.080Z,9.97
2018-09-28T12:56:01.782Z,9.27
2018-09-28T12:58:30.278Z,25.33
2018-09-28T13:00:59.043Z,9.10
2018-09-28T13:03:27.516Z,10.00
2018-09-28T13:05:56.014Z,10.67
2018-09-28T13:08:24.564Z,14.37
2018-09-28T13:10:53.346Z,6.10
2018-09-28T13:13:21.994Z,14.60
2018-09-28T13:15:50.485Z,21.53
2018-09-28T13:18:19.548Z,8.40
2018-09-28T13:20:48.168Z,7.57
2018-09-28T13:23:17.806Z,8.87
2018-09-28T13:25:46.397Z,14.23
2018-09-28T13:28:15.055Z,11.30
2018-09-28T13:30:43.553Z,16.50
2018-09-28T13:33:12.323Z,11.50
2018-09-28T13:35:41.082Z,11.23
2018-09-28T13:38:09.715Z,13.80
2018-09-28T13:40:38.443Z,9.40
2018-09-28T13:43:06.925Z,13.57
2018-09-28T13:45:35.411Z,11.07
2018-09-28T13:48:04.137Z,13.30
2018-09-28T13:50:32.713Z,10.00
2018-09-28T13:53:01.408Z,12.47
2018-09-28T13:55:33.197Z,10.00
2018-09-28T13:58:02.670Z,19.63
2018-09-28T14:00:31.248Z,12.10
2018-09-28T14:02:59.782Z,11.90
2018-09-28T14:05:28.459Z,9.03
2018-09-28T14:07:57.091Z,13.13
2018-09-28T14:10:25.640Z,12.83
2018-09-28T14:12:54.260Z,10.80
2018-09-28T14:15:22.967Z,7.97
2018-09-28T14:17:52.027Z,9.80
2018-09-28T14:20:20.802Z,12.20
2018-09-28T14:22:49.521Z,18.47
2018-09-28T14:25:18.167Z,14.60
2018-09-28T14:27:46.892Z,10.43
2018-09-28T14:30:15.633Z,11.70
2018-09-28T14:32:44.398Z,14.43
2018-09-28T14:35:13.178Z,14.60
2018-09-28T14:37:41.767Z,12.47
2018-09-28T14:40:12.371Z,16.03
2018-09-28T14:42:41.353Z,8.60
2018-09-28T14:45:10.015Z,11.30
2018-09-28T14:47:38.805Z,11.97
2018-09-28T14:50:07.702Z,14.47
2018-09-28T14:52:36.667Z,9.90
2018-09-28T14:55:05.347Z,14.13
2018-09-28T14:57:33.810Z,11.93
2018-09-28T15:00:02.290Z,12.77
2018-09-28T15:02:31.175Z,8.90
2018-09-28T16:27:26.942Z,8.77
2018-09-28T16:29:55.875Z,8.80
2018-09-28T16:32:24.767Z,9.83
2018-09-28T16:34:53.690Z,8.70
2018-09-28T16:37:22.660Z,7.20
2018-09-28T16:39:56.413Z,11.13
2018-09-28T16:42:25.466Z,11.63
2018-09-28T16:44:54.882Z,16.20
2018-09-28T16:47:23.773Z,14.80
2018-09-28T16:49:52.650Z,5.70
2018-09-28T16:52:21.570Z,11.20
2018-09-28T16:54:50.535Z,9.70
2018-09-28T16:57:19.592Z,7.80
2018-09-28T16:59:50.645Z,13.27
2018-09-28T17:02:19.709Z,11.10
2018-09-28T17:04:48.638Z,6.67
2018-09-28T17:07:17.667Z,8.00
2018-09-28T17:12:24.748Z,10.00
2018-09-28T17:14:54.353Z,5.80
2018-09-28T17:17:23.969Z,9.60
2018-09-28T17:19:52.916Z,18.90
2018-09-28T17:22:21.926Z,15.00
2018-09-28T17:24:50.942Z,14.43
2018-09-28T17:27:19.945Z,17.83
2018-09-28T17:29:49.756Z,15.00
2018-09-28T17:32:18.704Z,15.80
2018-09-28T17:34:47.969Z,19.20
2018-09-28T17:37:17.143Z,23.40
2018-09-28T17:39:46.407Z,23.53
2018-09-28T17:42:15.334Z,27.57
2018-09-28T17:44:44.196Z,16.70
2018-09-28T17:47:13.124Z,17.93
2018-09-28T17:49:42.071Z,31.20
2018-09-28T17:58:19.649Z,13.07
2018-09-28T20:57:21.555Z,3.73
2018-09-28T20:59:50.700Z,7.03
2018-09-28T21:02:25.681Z,5.40
2018-09-28T21:08:09.962Z,5.53
2018-09-28T21:10:39.271Z,3.23
2018-09-28T21:13:10.310Z,5.10
2018-09-28T21:15:41.101Z,4.70
2018-09-28T21:18:11.689Z,8.40
2018-09-28T21:20:41.078Z,5.80
2018-09-28T21:23:09.822Z,2.50
2018-09-28T21:25:38.624Z,6.23
2018-09-28T21:28:07.235Z,6.17
2018-09-28T21:30:36.060Z,4.70
2018-09-28T21:33:05.168Z,6.13
2018-09-28T21:35:36.033Z,4.47
2018-09-28T21:38:04.974Z,5.30
2018-09-28T21:40:34.234Z,12.20
2018-09-28T21:43:02.556Z,5.83
2018-09-28T21:45:31.852Z,5.03
2018-09-28T21:48:00.112Z,7.33
2018-09-28T21:50:30.534Z,8.57
2018-09-28T21:53:00.710Z,3.63
2018-09-28T21:55:29.691Z,3.60
2018-09-28T21:57:58.527Z,8.37
2018-09-28T22:00:27.949Z,3.57
2018-09-28T22:02:57.066Z,5.37
2018-09-28T22:05:25.654Z,7.73
2018-09-28T22:07:54.689Z,2.33
2018-09-28T22:10:23.766Z,4.63
2018-09-28T22:12:52.533Z,5.97
2018-09-28T22:15:21.181Z,8.63
2018-09-28T22:17:50.313Z,5.10
2018-09-28T22:20:18.898Z,7.30
2018-09-28T22:22:47.521Z,5.13
2018-09-28T22:25:16.259Z,6.07
2018-09-28T22:27:44.650Z,8.03
2018-09-28T22:30:13.299Z,12.60
2018-09-28T22:32:42.719Z,9.40
2018-09-28T22:35:10.954Z,8.73
2018-09-28T22:37:39.246Z,6.40
2018-09-28T22:40:07.486Z,6.30
2018-09-28T22:42:35.750Z,10.90
2018-09-28T22:45:06.744Z,7.00
2018-09-28T22:47:36.792Z,3.87
2018-09-28T22:50:05.166Z,9.03
2018-09-28T22:52:33.375Z,4.67
2018-09-28T22:55:01.576Z,4.03
2018-09-28T22:57:29.780Z,8.33
2018-09-28T22:59:58.027Z,5.57
2018-09-28T23:02:26.254Z,10.00
2018-09-28T23:04:54.428Z,7.40
2018-09-28T23:07:22.654Z,10.67
2018-09-28T23:09:50.949Z,5.53
2018-09-28T23:12:19.230Z,5.53
2018-09-28T23:14:47.435Z,3.80
2018-09-28T23:17:15.711Z,8.57
2018-09-28T23:19:43.962Z,3.63
2018-09-28T23:22:12.239Z,6.50
2018-09-28T23:24:40.510Z,6.30
2018-09-28T23:27:09.223Z,6.10
2018-09-28T23:29:37.833Z,4.13
2018-09-28T23:32:06.771Z,3.00
2018-09-28T23:34:35.319Z,12.93
2018-09-28T23:37:03.955Z,4.67
2018-09-28T23:39:32.622Z,3.80
2018-09-28T23:42:01.162Z,7.90
2018-09-28T23:44:29.791Z,5.60
2018-09-28T23:46:58.359Z,4.03
2018-09-28T23:49:26.904Z,5.53
2018-09-28T23:51:55.227Z,5.63
2018-09-28T23:54:23.826Z,5.00
2018-09-28T23:56:52.097Z,3.37
2018-09-28T23:59:21.006Z,5.33
